createdAt,value
2022-10-13T00:01:26.154Z,101248.66
2022-10-13T00:03:55.045Z,101249.59
2022-10-13T00:06:27.426Z,101251.44
2022-10-13T00:08:56.588Z,101250.59
2022-10-13T00:11:29.586Z,101245.41
2022-10-13T00:14:00.474Z,101247.13
2022-10-13T00:16:33.091Z,101246.31
2022-10-13T00:19:02.266Z,101241.91
2022-10-13T00:21:30.815Z,101241.91
2022-10-13T00:23:59.546Z,101247.19
2022-10-13T00:26:29.208Z,101248.06
2022-10-13T00:28:58.114Z,101248.13
2022-10-13T00:31:29.047Z,101244.66
2022-10-13T00:33:59.328Z,101250.81
2022-10-13T00:36:27.592Z,101249.94
2022-10-13T00:38:56.008Z,101256.06
2022-10-13T00:41:24.539Z,101259.56
2022-10-13T00:44:00.156Z,101259.56
2022-10-13T00:46:31.283Z,101272.69
2022-10-13T00:49:05.069Z,101266.56
2022-10-13T00:51:39.173Z,101264.81
2022-10-13T00:54:11.106Z,101260.44
2022-10-13T00:56:42.802Z,101257.78
2022-10-13T00:59:23.046Z,101256.06
2022-10-13T01:01:52.296Z,101253.41
2022-10-13T01:04:23.653Z,101239.44
2022-10-13T01:06:52.610Z,101245.56
2022-10-13T01:09:21.178Z,101243.81
2022-10-13T01:12:05.245Z,101242.09
2022-10-13T01:14:45.908Z,101244.72
2022-10-13T01:17:29.616Z,101247.38
2022-10-13T01:20:42.025Z,101245.72
2022-10-13T01:23:57.063Z,101249.22
2022-10-13T01:27:06.192Z,101247.50
2022-10-13T01:30:02.645Z,101243.09
2022-10-13T01:32:39.779Z,101243.03
2022-10-13T01:35:13.316Z,101238.66
2022-10-13T01:37:49.812Z,101240.41
2022-10-13T01:40:25.533Z,101235.16
2022-10-13T01:42:59.684Z,101228.09
2022-10-13T01:45:36.713Z,101226.38
2022-10-13T01:48:07.276Z,101228.16
2022-10-13T01:50:40.915Z,101229.06
2022-10-13T01:53:11.074Z,101231.69
2022-10-13T01:55:49.655Z,101222.97
2022-10-13T01:58:17.949Z,101218.66
2022-10-13T02:01:04.306Z,101232.69
2022-10-13T02:03:47.784Z,101220.50
2022-10-13T02:06:25.016Z,101226.69
2022-10-13T02:09:02.565Z,101232.00
2022-10-13T02:11:31.156Z,101226.78
2022-10-13T02:14:08.459Z,101224.22
2022-10-13T02:16:43.440Z,101226.03
2022-10-13T02:19:16.416Z,101223.41
2022-10-13T02:21:46.208Z,101219.97
2022-10-13T02:24:15.080Z,101214.75
2022-10-13T02:26:43.515Z,101214.78
2022-10-13T02:29:15.229Z,101213.06
2022-10-13T02:31:46.024Z,101220.97
2022-10-13T02:34:15.406Z,101211.41
2022-10-13T02:36:48.120Z,101208.81
2022-10-13T02:39:17.690Z,101215.84
2022-10-13T02:41:46.340Z,101214.94
2022-10-13T02:44:15.039Z,101212.34
2022-10-13T02:46:44.805Z,101205.38
2022-10-13T02:49:13.395Z,101213.25
2022-10-13T02:51:41.878Z,101201.91
2022-10-13T02:54:10.662Z,101190.56
2022-10-13T02:56:38.851Z,101200.16
2022-10-13T02:59:07.423Z,101197.47
2022-10-13T03:01:41.080Z,101200.97
2022-10-13T03:04:11.452Z,101202.69
2022-10-13T03:06:39.651Z,101205.28
2022-10-13T03:09:09.407Z,101202.63
2022-10-13T03:11:38.964Z,101202.63
2022-10-13T03:14:07.494Z,101209.66
2022-10-13T03:16:35.995Z,101209.66
2022-10-13T03:19:04.950Z,101201.78
2022-10-13T03:21:34.529Z,101198.28
2022-10-13T03:24:03.011Z,101200.91
2022-10-13T03:26:31.483Z,101200.91
2022-10-13T03:28:59.661Z,101203.50
2022-10-13T03:31:28.424Z,101197.38
2022-10-13T03:34:03.661Z,101194.75
2022-10-13T03:36:32.224Z,101191.22
2022-10-13T03:39:01.815Z,101199.09
2022-10-13T03:41:30.360Z,101193.84
2022-10-13T03:43:58.615Z,101197.38
2022-10-13T03:46:31.258Z,101192.13
2022-10-13T03:49:00.507Z,101195.66
2022-10-13T03:51:31.483Z,101197.44
2022-10-13T03:54:02.405Z,101199.19
2022-10-13T03:56:30.980Z,101204.44
2022-10-13T03:59:01.608Z,101200.09
2022-10-13T04:01:31.134Z,101208.81
2022-10-13T04:04:02.183Z,101210.59
2022-10-13T04:06:31.688Z,101202.72
2022-10-13T04:09:01.432Z,101201.78
2022-10-13T04:11:30.174Z,101197.38
2022-10-13T04:13:59.268Z,101200.00
2022-10-13T04:16:30.449Z,101202.69
2022-10-13T04:19:01.607Z,101201.00
2022-10-13T04:21:31.588Z,101201.06
2022-10-13T04:24:02.488Z,101204.53
2022-10-13T04:26:33.799Z,101209.75
2022-10-13T04:29:10.366Z,101211.50
2022-10-13T04:31:39.776Z,101211.44
2022-10-13T04:34:08.479Z,101209.66
2022-10-13T04:36:36.995Z,101202.69
2022-10-13T04:39:06.782Z,101198.34
2022-10-13T04:41:37.027Z,101201.81
2022-10-13T04:44:05.601Z,101194.84
2022-10-13T04:46:34.119Z,101193.97
2022-10-13T04:49:02.852Z,101193.97
2022-10-13T04:51:34.101Z,101188.72
2022-10-13T04:54:05.459Z,101191.38
2022-10-13T04:56:35.275Z,101192.31
2022-10-13T04:59:05.720Z,101187.13
2022-10-13T05:01:53.164Z,101185.47
2022-10-13T05:04:22.146Z,101182.00
2022-10-13T05:07:16.560Z,101177.69
2022-10-13T05:09:39.657Z,101176.88
2022-10-13T05:12:13.241Z,101176.03
2022-10-13T05:14:41.835Z,101161.22
2022-10-13T05:17:10.116Z,101160.41
2022-10-13T05:19:38.644Z,101154.31
2022-10-13T05:22:07.235Z,101158.69
2022-10-13T05:24:37.393Z,101148.25
2022-10-13T05:27:07.477Z,101143.91
2022-10-13T05:29:37.444Z,101143.91
2022-10-13T05:32:07.421Z,101149.16
2022-10-13T05:34:35.927Z,101143.91
2022-10-13T05:37:04.882Z,101142.19
2022-10-13T05:39:34.931Z,101148.34
2022-10-13T05:42:03.411Z,101138.72
2022-10-13T05:44:31.608Z,101135.22
2022-10-13T05:47:06.502Z,101131.69
2022-10-13T05:49:39.649Z,101135.19
2022-10-13T05:52:11.141Z,101125.56
2022-10-13T05:54:42.973Z,101135.13
2022-10-13T05:57:18.209Z,101129.94
2022-10-13T05:59:54.305Z,101129.94
2022-10-13T06:02:27.653Z,101128.13
2022-10-13T06:04:58.094Z,101130.75
2022-10-13T06:07:26.830Z,101136.84
2022-10-13T06:09:55.324Z,101131.59
2022-10-13T06:12:23.910Z,101134.19
2022-10-13T06:14:52.492Z,101135.03
2022-10-13T06:17:21.012Z,101135.84
2022-10-13T06:19:50.610Z,101137.53
2022-10-13T06:22:19.400Z,101146.25
2022-10-13T06:24:49.048Z,101142.69
2022-10-13T06:27:17.318Z,101142.59
2022-10-13T06:29:46.261Z,101140.78
2022-10-13T06:32:14.763Z,101137.19
2022-10-13T06:34:43.286Z,101143.22
2022-10-13T06:37:12.881Z,101143.16
2022-10-13T06:39:41.514Z,101135.19
2022-10-13T06:42:10.421Z,101135.97
2022-10-13T06:44:43.508Z,101142.03
2022-10-13T06:47:11.788Z,101152.47
2022-10-13T06:49:39.964Z,101149.75
2022-10-13T06:52:13.577Z,101157.56
2022-10-13T06:54:41.982Z,101152.19
2022-10-13T06:57:10.158Z,101138.97
2022-10-13T06:59:38.719Z,101125.78
2022-10-13T07:02:07.450Z,101136.16
2022-10-13T07:04:35.692Z,101135.19
2022-10-13T07:07:04.226Z,101135.91
2022-10-13T07:09:34.263Z,101154.16
2022-10-13T07:12:03.288Z,101155.75
2022-10-13T07:14:31.926Z,101157.34
2022-10-13T07:17:00.543Z,101153.78
2022-10-13T07:19:29.028Z,101147.63
2022-10-13T07:21:58.110Z,101149.25
2022-10-13T07:24:26.907Z,101146.56
2022-10-13T07:26:56.509Z,101151.75
2022-10-13T07:29:25.118Z,101137.72
2022-10-13T07:31:53.316Z,101127.13
2022-10-13T07:34:21.985Z,101130.53
2022-10-13T07:36:50.211Z,101126.00
2022-10-13T07:39:18.418Z,101138.19
2022-10-13T07:41:50.894Z,101126.69
2022-10-13T07:44:20.973Z,101120.38
2022-10-13T07:46:49.463Z,101121.88
2022-10-13T07:49:17.668Z,101121.72
2022-10-13T07:51:46.334Z,101125.84
2022-10-13T07:54:20.687Z,101119.44
2022-10-13T07:56:53.471Z,101123.44
2022-10-13T07:59:24.225Z,101129.28
2022-10-13T08:01:53.724Z,101124.72
2022-10-13T08:04:22.271Z,101136.91
2022-10-13T08:06:50.803Z,101132.50
2022-10-13T08:09:18.999Z,101129.00
2022-10-13T08:11:47.265Z,101117.59
2022-10-13T08:14:15.778Z,101126.38
2022-10-13T08:16:48.775Z,101119.31
2022-10-13T08:19:22.011Z,101114.72
2022-10-13T08:21:59.582Z,101112.63
2022-10-13T08:24:29.541Z,101108.88
2022-10-13T08:26:57.788Z,101120.00
2022-10-13T08:29:26.096Z,101131.28
2022-10-13T08:31:56.217Z,101136.47
2022-10-13T08:34:25.914Z,101131.16
2022-10-13T08:36:56.571Z,101134.66
2022-10-13T08:39:26.333Z,101139.94
2022-10-13T08:41:57.702Z,101142.59
2022-10-13T08:45:06.217Z,101146.16
2022-10-13T08:47:38.897Z,101130.50
2022-10-13T08:50:15.191Z,101124.41
2022-10-13T08:52:50.186Z,101123.50
2022-10-13T08:55:34.607Z,101134.97
2022-10-13T08:58:07.780Z,101134.94
2022-10-13T09:00:36.300Z,101144.63
2022-10-13T09:03:25.883Z,101136.75
2022-10-13T09:06:12.266Z,101153.47
2022-10-13T09:08:48.628Z,101143.00
2022-10-13T09:11:16.891Z,101144.72
2022-10-13T09:13:45.121Z,101137.66
2022-10-13T09:16:13.413Z,101148.13
2022-10-13T09:18:43.001Z,101139.28
2022-10-13T09:21:21.902Z,101146.41
2022-10-13T09:23:52.043Z,101143.75
2022-10-13T09:26:24.799Z,101147.25
2022-10-13T09:28:53.853Z,101143.72
2022-10-13T09:31:27.724Z,101141.03
2022-10-13T09:34:02.763Z,101146.31
2022-10-13T09:36:31.724Z,101137.41
2022-10-13T09:39:12.461Z,101137.31
2022-10-13T09:41:42.720Z,101133.78
2022-10-13T09:44:16.681Z,101147.81
2022-10-13T09:46:53.361Z,101140.81
2022-10-13T09:49:38.361Z,101140.75
2022-10-13T09:52:19.569Z,101137.19
2022-10-13T09:54:51.455Z,101134.44
2022-10-13T09:57:31.158Z,101135.22
2022-10-13T10:00:11.409Z,101129.09
2022-10-13T10:02:52.923Z,101128.25
2022-10-13T10:05:29.516Z,101117.81
2022-10-13T10:08:07.600Z,101109.13
2022-10-13T10:10:41.353Z,101104.63
2022-10-13T10:13:13.452Z,101108.03
2022-10-13T10:15:54.225Z,101114.22
2022-10-13T10:18:32.792Z,101118.66
2022-10-13T10:21:14.486Z,101131.00
2022-10-13T10:23:48.747Z,101141.59
2022-10-13T10:26:24.228Z,101135.56
2022-10-13T10:29:23.639Z,101133.72
2022-10-13T10:32:21.287Z,101136.31
2022-10-13T10:34:57.983Z,101151.19
2022-10-13T10:37:49.478Z,101136.34
2022-10-13T10:40:33.776Z,101126.72
2022-10-13T10:43:39.209Z,101117.06
2022-10-13T10:46:18.090Z,101107.38
2022-10-13T10:48:50.331Z,101109.13
2022-10-13T10:51:20.481Z,101096.75
2022-10-13T10:54:06.177Z,101082.69
2022-10-13T10:56:39.728Z,101065.78
2022-10-13T10:59:32.287Z,101050.69
2022-10-13T11:02:16.028Z,101056.56
2022-10-13T11:04:47.417Z,101050.22
2022-10-13T11:07:56.847Z,101037.78
2022-10-13T11:10:27.560Z,101034.78
2022-10-13T11:13:19.271Z,101015.94
2022-10-13T11:15:47.957Z,101019.75
2022-10-13T11:18:59.167Z,101013.38
2022-10-13T11:22:24.405Z,101014.63
2022-10-13T11:25:23.972Z,101001.44
2022-10-13T11:27:53.604Z,100991.22
2022-10-13T11:30:51.040Z,100990.50
2022-10-13T11:33:52.157Z,100985.41
2022-10-13T11:36:46.028Z,100993.63
2022-10-13T11:40:12.699Z,100991.19
2022-10-13T11:43:18.310Z,100985.94
2022-10-13T11:46:06.029Z,100990.16
2022-10-13T11:49:14.819Z,100976.03
2022-10-13T11:52:12.266Z,100976.16
2022-10-13T11:54:49.559Z,100980.31
2022-10-13T11:57:24.394Z,100987.22
2022-10-13T11:59:56.322Z,100985.47
2022-10-13T12:02:50.796Z,100983.06
2022-10-13T12:05:24.882Z,100981.59
2022-10-13T12:07:56.079Z,100986.38
2022-10-13T12:10:30.643Z,100990.31
2022-10-13T12:13:00.344Z,100986.38
2022-10-13T12:15:39.094Z,100985.88
2022-10-13T12:18:23.601Z,100988.91
2022-10-13T12:20:57.059Z,100990.69
2022-10-13T12:23:26.668Z,100991.53
2022-10-13T12:25:58.350Z,100988.97
2022-10-13T12:28:31.012Z,100982.88
2022-10-13T12:31:01.797Z,100971.53
2022-10-13T12:33:35.235Z,100972.38
2022-10-13T12:36:15.227Z,100968.66
2022-10-13T12:38:49.405Z,100972.91
2022-10-13T12:41:25.683Z,100967.69
2022-10-13T12:43:55.429Z,100962.53
2022-10-13T12:46:43.656Z,100948.56
2022-10-13T12:49:17.887Z,100939.78
2022-10-13T12:51:50.294Z,100930.94
2022-10-13T12:54:26.374Z,100926.59
2022-10-13T12:56:59.185Z,100917.00
2022-10-13T12:59:30.044Z,100916.94
2022-10-13T13:02:02.546Z,100918.59
2022-10-13T13:04:42.060Z,100930.63
2022-10-13T13:07:32.517Z,100923.38
2022-10-13T13:10:17.426Z,100920.50
2022-10-13T13:12:46.954Z,100917.69
2022-10-13T13:15:38.386Z,100921.09
2022-10-13T13:18:42.372Z,100913.38
2022-10-13T13:21:13.727Z,100919.66
2022-10-13T13:23:51.094Z,100918.09
2022-10-13T13:26:24.668Z,100924.38
2022-10-13T13:28:55.349Z,100927.06
2022-10-13T13:31:25.917Z,100923.63
2022-10-13T13:33:55.485Z,100921.03
2022-10-13T13:36:26.855Z,100902.47
2022-10-13T13:38:56.060Z,100911.19
2022-10-13T13:41:27.688Z,100912.03
2022-10-13T13:43:55.962Z,100906.59
2022-10-13T13:46:27.580Z,100913.28
2022-10-13T13:48:57.200Z,100916.56
2022-10-13T13:51:25.654Z,100908.41
2022-10-13T13:53:53.892Z,100911.84
2022-10-13T13:56:22.459Z,100909.97
2022-10-13T13:58:50.624Z,100895.03
2022-10-13T14:01:19.249Z,100895.13
2022-10-13T14:03:47.795Z,100895.25
2022-10-13T14:06:22.948Z,100883.91
2022-10-13T14:08:51.689Z,100883.06
2022-10-13T14:11:20.447Z,100876.91
2022-10-13T14:13:49.109Z,100877.03
2022-10-13T14:16:25.528Z,100888.72
2022-10-13T14:18:55.836Z,100882.63
2022-10-13T14:21:27.308Z,100880.91
2022-10-13T14:23:58.679Z,100891.50
2022-10-13T14:26:27.252Z,100892.38
2022-10-13T14:28:55.428Z,100893.34
2022-10-13T14:31:23.804Z,100892.53
2022-10-13T14:33:54.288Z,100893.38
2022-10-13T14:36:26.689Z,100893.34
2022-10-13T14:38:55.135Z,100895.03
2022-10-13T14:41:23.767Z,100909.13
2022-10-13T14:43:55.228Z,100910.06
2022-10-13T14:46:24.616Z,100905.75
2022-10-13T14:48:53.120Z,100905.03
2022-10-13T14:51:21.373Z,100901.72
2022-10-13T14:53:50.945Z,100902.75
2022-10-13T14:56:22.307Z,100899.28
2022-10-13T14:58:55.372Z,100902.91
2022-10-13T15:01:25.854Z,100899.53
2022-10-13T15:03:54.259Z,100903.09
2022-10-13T15:06:24.617Z,100889.16
2022-10-13T15:08:54.756Z,100891.75
2022-10-13T15:11:26.993Z,100881.16
2022-10-13T15:13:56.239Z,100873.22
2022-10-13T15:16:27.776Z,100883.81
2022-10-13T15:18:56.645Z,100885.59
2022-10-13T15:21:25.168Z,100880.34
2022-10-13T15:23:54.877Z,100884.78
2022-10-13T15:26:24.452Z,100880.50
2022-10-13T15:28:54.265Z,100882.31
2022-10-13T15:31:24.584Z,100884.06
2022-10-13T15:33:54.915Z,100889.34
2022-10-13T15:36:25.986Z,100887.69
2022-10-13T15:38:55.779Z,100887.75
2022-10-13T15:41:25.454Z,100881.69
2022-10-13T15:43:54.033Z,100879.13
2022-10-13T15:46:23.992Z,100873.97
2022-10-13T15:48:55.181Z,100880.25
2022-10-13T15:51:26.738Z,100892.66
2022-10-13T15:53:56.417Z,100881.34
2022-10-13T15:56:24.662Z,100893.78
2022-10-13T15:58:52.884Z,100884.25
2022-10-13T16:01:21.431Z,100883.56
2022-10-13T16:03:53.862Z,100883.69
2022-10-13T16:06:22.538Z,100883.94
2022-10-13T16:08:51.548Z,100880.50
2022-10-13T16:11:23.908Z,100884.19
2022-10-13T16:13:54.261Z,100885.31
2022-10-13T16:16:23.355Z,100880.22
2022-10-13T16:18:51.804Z,100872.53
2022-10-13T16:21:22.380Z,100866.63
2022-10-13T16:23:51.125Z,100866.00
2022-10-13T16:26:20.889Z,100868.88
2022-10-13T16:28:49.610Z,100875.22
2022-10-13T16:31:18.765Z,100877.03
2022-10-13T16:33:47.646Z,100875.47
2022-10-13T16:36:18.926Z,100878.22
2022-10-13T16:38:49.456Z,100880.09
2022-10-13T16:41:20.290Z,100874.94
2022-10-13T16:43:49.128Z,100883.91
2022-10-13T16:46:19.532Z,100881.41
2022-10-13T16:48:48.543Z,100881.53
2022-10-13T16:51:19.023Z,100870.22
2022-10-13T16:53:50.155Z,100876.47
2022-10-13T16:56:22.151Z,100880.03
2022-10-13T16:58:50.883Z,100887.13
2022-10-13T17:01:19.492Z,100874.84
2022-10-13T17:03:48.425Z,100872.25
2022-10-13T17:06:17.569Z,100870.50
2022-10-13T17:08:46.031Z,100868.81
2022-10-13T17:11:19.076Z,100869.72
2022-10-13T17:13:49.653Z,100876.78
2022-10-13T17:16:18.600Z,100870.66
2022-10-13T17:18:47.127Z,100868.97
2022-10-13T17:21:18.344Z,100881.41
2022-10-13T17:23:48.808Z,100873.47
2022-10-13T17:26:19.173Z,100882.28
2022-10-13T17:28:48.866Z,100877.94
2022-10-13T17:31:20.184Z,100878.88
2022-10-13T17:33:50.401Z,100877.13
2022-10-13T17:36:21.894Z,100880.69
2022-10-13T17:38:51.609Z,100884.19
2022-10-13T17:41:20.973Z,100884.25
2022-10-13T17:43:52.590Z,100882.53
2022-10-13T17:46:36.425Z,100874.59
2022-10-13T17:49:06.655Z,100874.59
2022-10-13T17:51:35.619Z,100878.16
2022-10-13T17:54:04.495Z,100880.81
2022-10-13T17:56:33.046Z,100874.69
2022-10-13T17:59:03.440Z,100883.44
2022-10-13T18:01:34.510Z,100881.66
2022-10-13T18:04:05.290Z,100880.81
2022-10-13T18:06:39.840Z,100893.06
2022-10-13T18:09:10.105Z,100891.38
2022-10-13T18:11:39.392Z,100888.72
2022-10-13T18:14:09.253Z,100885.22
2022-10-13T18:16:43.157Z,100887.00
2022-10-13T18:19:14.191Z,100892.22
2022-10-13T18:21:42.518Z,100893.06
2022-10-13T18:24:11.894Z,100886.91
2022-10-13T18:26:41.112Z,100883.38
2022-10-13T18:29:13.235Z,100893.06
2022-10-13T18:31:42.448Z,100885.16
2022-10-13T18:34:14.600Z,100894.81
2022-10-13T18:36:47.058Z,100880.75
2022-10-13T18:39:18.476Z,100880.81
2022-10-13T18:41:50.174Z,100879.09
2022-10-13T18:44:20.874Z,100888.72
2022-10-13T18:46:51.770Z,100889.66
2022-10-13T18:49:23.275Z,100887.91
2022-10-13T18:51:52.583Z,100893.19
2022-10-13T18:54:21.007Z,100879.09
2022-10-13T18:56:50.117Z,100878.28
2022-10-13T18:59:19.921Z,100877.34
2022-10-13T19:01:48.744Z,100879.19
2022-10-13T19:04:17.092Z,100884.44
2022-10-13T19:06:46.342Z,100895.00
2022-10-13T19:09:17.262Z,100905.56
2022-10-13T19:11:45.902Z,100902.94
2022-10-13T19:14:19.133Z,100900.28
2022-10-13T19:16:47.729Z,100909.94
2022-10-13T19:19:16.062Z,100906.44
2022-10-13T19:21:44.623Z,100899.38
2022-10-13T19:24:13.300Z,100893.31
2022-10-13T19:26:42.058Z,100896.88
2022-10-13T19:29:13.456Z,100888.13
2022-10-13T19:31:44.432Z,100882.97
2022-10-13T19:34:13.904Z,100881.38
2022-10-13T19:36:45.082Z,100881.50
2022-10-13T19:39:17.599Z,100879.84
2022-10-13T19:41:47.303Z,100873.78
2022-10-13T19:44:18.020Z,100878.25
2022-10-13T19:46:48.657Z,100873.94
2022-10-13T19:49:19.373Z,100877.53
2022-10-13T19:51:49.022Z,100879.41
2022-10-13T19:54:19.452Z,100885.66
2022-10-13T19:56:49.562Z,100882.22
2022-10-13T19:59:19.314Z,100891.03
2022-10-13T20:01:49.075Z,100896.31
2022-10-13T20:04:20.391Z,100906.84
2022-10-13T20:06:49.407Z,100902.44
2022-10-13T20:09:17.864Z,100898.06
2022-10-13T20:11:47.201Z,100900.72
2022-10-13T20:14:15.908Z,100902.50
2022-10-13T20:16:44.204Z,100906.84
2022-10-13T20:19:16.145Z,100904.31
2022-10-13T20:21:47.920Z,100899.22
2022-10-13T20:24:16.592Z,100898.44
2022-10-13T20:26:45.136Z,100889.78
2022-10-13T20:29:13.968Z,100896.84
2022-10-13T20:31:42.549Z,100896.94
2022-10-13T20:34:13.216Z,100889.13
2022-10-13T20:36:42.033Z,100897.16
2022-10-13T20:39:10.642Z,100891.97
2022-10-13T20:41:39.761Z,100888.53
2022-10-13T20:44:08.299Z,100878.09
2022-10-13T20:46:36.942Z,100874.66
2022-10-13T20:49:13.446Z,100872.97
2022-10-13T20:51:44.587Z,100869.50
2022-10-13T20:54:15.317Z,100881.00
2022-10-13T20:56:44.340Z,100883.66
2022-10-13T20:59:15.537Z,100880.19
2022-10-13T21:01:44.179Z,100881.94
2022-10-13T21:04:12.804Z,100878.50
2022-10-13T21:06:42.986Z,100875.03
2022-10-13T21:09:11.973Z,100880.31
2022-10-13T21:11:43.468Z,100875.13
2022-10-13T21:14:12.771Z,100880.41
2022-10-13T21:16:41.286Z,100889.22
2022-10-13T21:19:13.056Z,100883.97
2022-10-13T21:21:42.644Z,100885.78
2022-10-13T21:24:11.825Z,100886.66
2022-10-13T21:26:41.268Z,100892.78
2022-10-13T21:29:15.202Z,100887.53
2022-10-13T21:31:43.831Z,100892.78
2022-10-13T21:34:13.391Z,100893.66
2022-10-13T21:36:44.664Z,100900.59
2022-10-13T21:39:14.742Z,100901.38
2022-10-13T21:41:43.343Z,100897.84
2022-10-13T21:44:14.807Z,100903.91
2022-10-13T21:46:43.423Z,100904.75
2022-10-13T21:49:12.394Z,100897.66
2022-10-13T21:51:43.027Z,100899.38
2022-10-13T21:54:13.801Z,100892.31
2022-10-13T21:56:43.044Z,100893.13
2022-10-13T21:59:13.746Z,100899.28
2022-10-13T22:01:42.840Z,100893.09
2022-10-13T22:04:15.112Z,100893.97
2022-10-13T22:06:44.963Z,100892.19
2022-10-13T22:09:14.317Z,100890.38
2022-10-13T22:11:43.192Z,100881.53
2022-10-13T22:14:15.247Z,100884.09
2022-10-13T22:16:46.051Z,100882.28
2022-10-13T22:19:15.027Z,100888.41
2022-10-13T22:21:47.442Z,100891.88
2022-10-13T22:24:20.330Z,100890.94
2022-10-13T22:26:50.659Z,100895.34
2022-10-13T22:29:22.424Z,100887.44
2022-10-13T22:31:51.955Z,100893.47
2022-10-13T22:34:20.206Z,100889.97
2022-10-13T22:36:49.812Z,100888.09
2022-10-13T22:39:18.568Z,100889.88
2022-10-13T22:41:47.193Z,100889.84
2022-10-13T22:44:15.487Z,100896.84
2022-10-13T22:46:43.970Z,100890.63
2022-10-13T22:49:15.700Z,100887.16
2022-10-13T22:51:43.888Z,100888.91
2022-10-13T22:54:13.583Z,100886.19
2022-10-13T22:56:42.605Z,100887.91
2022-10-13T22:59:12.496Z,100894.91
2022-10-13T23:01:41.256Z,100886.09
2022-10-13T23:04:09.456Z,100891.34
2022-10-13T23:06:38.027Z,100893.06
2022-10-13T23:09:10.143Z,100887.78
2022-10-13T23:11:40.136Z,100887.78
2022-10-13T23:14:09.764Z,100892.19
2022-10-13T23:16:38.031Z,100893.06
2022-10-13T23:19:06.546Z,100882.53
2022-10-13T23:21:35.124Z,100879.94
2022-10-13T23:24:06.940Z,100881.66
2022-10-13T23:26:35.802Z,100879.09
2022-10-13T23:29:06.036Z,100885.22
2022-10-13T23:31:34.767Z,100883.50
2022-10-13T23:34:03.496Z,100894.00
2022-10-13T23:36:33.695Z,100888.78
2022-10-13T23:39:05.324Z,100887.84
2022-10-13T23:41:34.333Z,100884.38
2022-10-13T23:44:04.203Z,100886.09
2022-10-13T23:46:32.875Z,100879.94
2022-10-13T23:49:01.351Z,100879.09
2022-10-13T23:51:29.951Z,100881.72
2022-10-13T23:54:00.080Z,100880.00
2022-10-13T23:56:28.895Z,100869.50
2022-10-13T23:58:57.370Z,100873.97
